createdAt,value
2023-05-10T00:01:58.913Z,-288.00
2023-05-10T00:06:44.944Z,-252.00
2023-05-10T00:11:59.846Z,-252.00
2023-05-10T00:17:13.058Z,-288.00
2023-05-10T00:22:32.091Z,-252.00
2023-05-10T00:27:50.792Z,-252.00
2023-05-10T00:33:09.149Z,-252.00
2023-05-10T00:44:39.156Z,-288.00
2023-05-10T00:54:45.330Z,-288.00
2023-05-10T01:00:28.041Z,-252.00
2023-05-10T01:04:27.447Z,-252.00
2023-05-10T01:05:26.142Z,-288.00
2023-05-10T01:11:39.266Z,-288.00
2023-05-10T01:16:32.766Z,-252.00
2023-05-10T01:22:18.497Z,-216.00
2023-05-10T01:28:11.787Z,-216.00
2023-05-10T01:33:55.622Z,-216.00
2023-05-10T01:39:34.453Z,-252.00
2023-05-10T01:46:15.117Z,-288.00
2023-05-10T01:55:51.212Z,-252.00
2023-05-10T02:00:45.404Z,-252.00
2023-05-10T02:06:18.716Z,-252.00
2023-05-10T02:11:49.388Z,-252.00
2023-05-10T02:17:08.324Z,-252.00
2023-05-10T02:22:07.474Z,-252.00
2023-05-10T02:27:47.157Z,-216.00
2023-05-10T02:33:21.688Z,-252.00
2023-05-10T02:38:28.278Z,-288.00
2023-05-10T02:43:41.679Z,-252.00
2023-05-10T02:50:49.552Z,-252.00
2023-05-10T02:54:52.543Z,-252.00
2023-05-10T03:04:57.947Z,-288.00
2023-05-10T03:06:20.792Z,-252.00
2023-05-10T03:10:58.918Z,-216.00
2023-05-10T03:16:47.647Z,-216.00
2023-05-10T03:22:15.894Z,-252.00
2023-05-10T03:28:26.370Z,-288.00
2023-05-10T03:33:26.577Z,-252.00
2023-05-10T03:39:33.206Z,-216.00
2023-05-10T03:45:24.857Z,-324.00
2023-05-10T04:03:34.892Z,-216.00
2023-05-10T04:07:28.628Z,-216.00
2023-05-10T04:12:49.838Z,-216.00
2023-05-10T04:18:32.166Z,-180.00
2023-05-10T04:23:54.625Z,-180.00
2023-05-10T04:29:05.083Z,-144.00
2023-05-10T04:40:10.325Z,-144.00
2023-05-10T04:45:03.913Z,-72.00
2023-05-10T04:55:29.296Z,0.00
2023-05-10T05:00:33.772Z,0.00
2023-05-10T05:05:35.869Z,-180.00
2023-05-10T05:05:45.816Z,-36.00
2023-05-10T05:10:41.574Z,-36.00
2023-05-10T05:11:15.013Z,108.00
2023-05-10T05:16:44.191Z,-36.00
2023-05-10T05:22:11.165Z,72.00
2023-05-10T05:28:12.614Z,72.00
2023-05-10T05:32:38.158Z,72.00
2023-05-10T05:38:36.519Z,36.00
2023-05-10T05:43:55.180Z,0.00
2023-05-10T05:49:15.766Z,-72.00
2023-05-10T05:54:34.365Z,36.00
2023-05-10T06:00:30.966Z,72.00
2023-05-10T06:05:09.885Z,180.00
2023-05-10T06:10:15.039Z,144.00
2023-05-10T06:16:16.323Z,144.00
2023-05-10T06:22:12.448Z,180.00
2023-05-10T06:27:56.279Z,108.00
2023-05-10T06:35:27.337Z,0.00
2023-05-10T06:39:51.271Z,0.00
2023-05-10T06:51:01.335Z,36.00
2023-05-10T06:56:48.477Z,11448.00
2023-05-10T07:02:50.760Z,12096.00
2023-05-10T07:08:36.177Z,13392.00
2023-05-10T07:14:36.663Z,13392.00
2023-05-10T07:20:36.187Z,14652.00
2023-05-10T07:26:26.264Z,14976.00
2023-05-10T07:31:31.753Z,15696.00
2023-05-10T07:37:08.612Z,15660.00
2023-05-10T07:42:11.209Z,17424.00
2023-05-10T07:47:58.477Z,15624.00
2023-05-10T07:53:42.475Z,18036.00
2023-05-10T07:59:35.058Z,18504.00
2023-05-10T08:05:24.279Z,19044.00
2023-05-10T08:09:56.565Z,18252.00
2023-05-10T08:15:44.492Z,19548.00
2023-05-10T08:26:54.780Z,16992.00
2023-05-10T08:32:23.382Z,17640.00
2023-05-10T08:37:46.047Z,19836.00
2023-05-10T08:44:01.208Z,20016.00
2023-05-10T08:48:43.518Z,19692.00
2023-05-10T08:54:03.939Z,21240.00
2023-05-10T09:00:28.927Z,21924.00
2023-05-10T09:05:39.271Z,22140.00
2023-05-10T09:10:56.915Z,21744.00
2023-05-10T09:16:07.090Z,22788.00
2023-05-10T09:21:31.128Z,24768.00
2023-05-10T09:27:14.478Z,23832.00
2023-05-10T09:33:02.473Z,23904.00
2023-05-10T09:38:48.378Z,22716.00
2023-05-10T09:44:30.836Z,23112.00
2023-05-10T09:49:50.719Z,22860.00
2023-05-10T09:55:38.115Z,20880.00
2023-05-10T10:01:30.136Z,19008.00
2023-05-10T10:07:20.853Z,19476.00
2023-05-10T10:13:25.160Z,18000.00
2023-05-10T10:19:08.817Z,19512.00
2023-05-10T10:25:06.842Z,21024.00
2023-05-10T10:30:32.215Z,19620.00
2023-05-10T10:35:50.234Z,21528.00
2023-05-10T10:41:32.445Z,20952.00
2023-05-10T10:47:28.608Z,20808.00
2023-05-10T10:52:54.716Z,22068.00
2023-05-10T10:57:36.686Z,22176.00
2023-05-10T11:03:30.947Z,21384.00
2023-05-10T11:08:39.455Z,20700.00
2023-05-10T11:14:37.021Z,20736.00
2023-05-10T11:20:24.301Z,21240.00
2023-05-10T11:26:06.823Z,22788.00
2023-05-10T11:31:34.557Z,22860.00
2023-05-10T11:38:08.013Z,22428.00
2023-05-10T11:43:24.266Z,22752.00
2023-05-10T11:48:39.540Z,21888.00
2023-05-10T11:54:30.237Z,21024.00
2023-05-10T12:00:30.119Z,21060.00
2023-05-10T12:06:15.899Z,23112.00
2023-05-10T12:11:32.002Z,23184.00
2023-05-10T12:16:44.460Z,21312.00
2023-05-10T12:21:59.903Z,20628.00
2023-05-10T12:28:21.171Z,20304.00
2023-05-10T12:33:05.986Z,22464.00
2023-05-10T12:43:55.274Z,21744.00
2023-05-10T12:46:05.045Z,23652.00
2023-05-10T12:49:19.938Z,23796.00
2023-05-10T12:54:46.210Z,23004.00
2023-05-10T12:59:51.117Z,22140.00
2023-05-10T13:05:53.276Z,19728.00
2023-05-10T13:11:19.516Z,21924.00
2023-05-10T13:22:36.327Z,26028.00
2023-05-10T13:28:15.974Z,25128.00
2023-05-10T13:34:01.431Z,23580.00
2023-05-10T13:44:41.381Z,22896.00
2023-05-10T13:50:33.997Z,23040.00
2023-05-10T13:56:20.932Z,22212.00
2023-05-10T14:01:44.906Z,20088.00
2023-05-10T14:07:34.502Z,20088.00
2023-05-10T14:13:21.669Z,20952.00
2023-05-10T14:19:11.948Z,19836.00
2023-05-10T14:25:12.231Z,20016.00
2023-05-10T14:31:01.883Z,21600.00
2023-05-10T14:42:28.430Z,20700.00
2023-05-10T14:48:38.366Z,20700.00
2023-05-10T14:59:50.636Z,21060.00
2023-05-10T15:06:16.441Z,20160.00
2023-05-10T15:12:23.346Z,20412.00
2023-05-10T15:18:45.850Z,20088.00
2023-05-10T15:23:35.144Z,19404.00
2023-05-10T15:41:13.015Z,18216.00
2023-05-10T15:46:28.448Z,18756.00
2023-05-10T15:52:23.197Z,16236.00
2023-05-10T15:57:42.175Z,13464.00
2023-05-10T16:02:49.644Z,11700.00
2023-05-10T16:07:56.564Z,11592.00
2023-05-10T16:13:03.992Z,12924.00
2023-05-10T16:18:11.567Z,12564.00
2023-05-10T16:23:19.242Z,13320.00
2023-05-10T16:28:27.092Z,9216.00
2023-05-10T16:33:34.681Z,11124.00
2023-05-10T16:38:42.331Z,13176.00
2023-05-10T16:43:49.853Z,12708.00
2023-05-10T16:48:57.621Z,11808.00
2023-05-10T16:54:05.436Z,10728.00
2023-05-10T16:59:13.283Z,9144.00
2023-05-10T17:04:20.872Z,9648.00
2023-05-10T17:09:28.650Z,9396.00
2023-05-10T17:14:36.246Z,8676.00
2023-05-10T17:19:43.992Z,8712.00
2023-05-10T17:24:51.486Z,7596.00
2023-05-10T17:29:59.435Z,6660.00
2023-05-10T17:35:06.972Z,5220.00
2023-05-10T17:40:15.009Z,5004.00
2023-05-10T17:45:22.857Z,3924.00
2023-05-10T17:50:30.637Z,2160.00
2023-05-10T17:55:38.351Z,2052.00
2023-05-10T18:00:46.056Z,11268.00
2023-05-10T18:05:54.009Z,11088.00
2023-05-10T18:11:01.807Z,11088.00
2023-05-10T18:16:09.542Z,10728.00
2023-05-10T18:21:17.685Z,10008.00
2023-05-10T18:26:25.364Z,9756.00
2023-05-10T18:31:33.208Z,9648.00
2023-05-10T18:36:41.016Z,9792.00
2023-05-10T18:41:48.826Z,9756.00
2023-05-10T18:46:56.574Z,9504.00
2023-05-10T18:52:04.271Z,9504.00
2023-05-10T18:57:12.082Z,9360.00
2023-05-10T19:02:20.066Z,9324.00
2023-05-10T19:07:27.908Z,9324.00
2023-05-10T19:12:35.748Z,9540.00
2023-05-10T19:17:45.208Z,9288.00
2023-05-10T19:27:59.762Z,9360.00
2023-05-10T19:33:07.712Z,9396.00
2023-05-10T19:38:15.374Z,9324.00
2023-05-10T19:43:23.375Z,9324.00
2023-05-10T19:48:31.422Z,9396.00
2023-05-10T19:53:39.518Z,9288.00
2023-05-10T19:58:48.493Z,9360.00
2023-05-10T20:03:56.594Z,9468.00
2023-05-10T20:09:04.441Z,9324.00
2023-05-10T20:14:12.340Z,9504.00
2023-05-10T20:19:23.455Z,9468.00
2023-05-10T20:24:31.284Z,9468.00
2023-05-10T20:29:43.161Z,9396.00
2023-05-10T20:34:51.202Z,9360.00
2023-05-10T20:39:59.110Z,9288.00
2023-05-10T20:45:07.557Z,9036.00
2023-05-10T20:50:15.810Z,9108.00
2023-05-10T20:55:23.284Z,9324.00
2023-05-10T21:00:30.867Z,9324.00
2023-05-10T21:05:38.173Z,9324.00
2023-05-10T21:10:45.425Z,9324.00
2023-05-10T21:15:52.789Z,9288.00
2023-05-10T21:21:00.089Z,9324.00
2023-05-10T21:26:07.309Z,9468.00
2023-05-10T21:31:14.615Z,9324.00
2023-05-10T21:36:21.980Z,9468.00
2023-05-10T21:41:29.165Z,9468.00
2023-05-10T21:46:36.759Z,9324.00
2023-05-10T21:51:44.171Z,9324.00
2023-05-10T21:56:51.414Z,9396.00
2023-05-10T22:01:58.624Z,9612.00
2023-05-10T22:07:05.927Z,9432.00
2023-05-10T22:12:13.284Z,9504.00
2023-05-10T22:17:20.929Z,9432.00
2023-05-10T22:22:28.361Z,9396.00
2023-05-10T22:27:35.644Z,9468.00
2023-05-10T22:35:00.831Z,-288.00
2023-05-10T22:44:59.008Z,-252.00
2023-05-10T23:28:15.251Z,-252.00
2023-05-10T23:45:23.304Z,-252.00
2023-05-10T23:51:05.758Z,-252.00
2023-05-10T23:56:50.706Z,-324.00
